Wauwatosa, Wisconsin
Current Conditions -  °F | °C
As of 5:45 PM on Sunday 23 Nov 2014 (Local Time) from KMWC Reporting Station
Moderate Rain Moderate Rain  
Wind Chill: 42°   Ceiling: 600
Heat Index: 46°   Visibility: 5mi
Dew Point: 45°   Wind: 8mph
Humidity: 93%   Direction: 140°SE
Pressure: 29.42"   Gusts: NA
Location:  43.06°N, 88.01°W
Report Text: KMWC 232345Z AUTO 14007KT 5SM RA OVC006 08/07 A2942
Loading
Personal Weather Stations






























Interactive Weather Map New forecast layout! Learn more

10-Day Weather Forecast

Advertisements
Track Severe Weather on mobile